sensor_id;sensor_type;location;lat;lon;timestamp;P1;durP1;ratioP1;P2;durP2;ratioP2
1410;SDS011;700;51.906;8.404;2022-12-15T00:02:07;31.20;;;19.47;;
1410;SDS011;700;51.906;8.404;2022-12-15T00:07:26;34.77;;;17.87;;
1410;SDS011;700;51.906;8.404;2022-12-15T00:12:45;32.80;;;17.87;;
1410;SDS011;700;51.906;8.404;2022-12-15T00:18:05;37.30;;;18.90;;
1410;SDS011;700;51.906;8.404;2022-12-15T00:23:24;37.17;;;19.30;;
1410;SDS011;700;51.906;8.404;2022-12-15T00:28:43;36.93;;;19.40;;
1410;SDS011;700;51.906;8.404;2022-12-15T00:34:03;33.53;;;19.40;;
1410;SDS011;700;51.906;8.404;2022-12-15T00:39:22;31.40;;;18.17;;
1410;SDS011;700;51.906;8.404;2022-12-15T00:44:22;35.40;;;18.40;;
1410;SDS011;700;51.906;8.404;2022-12-15T00:49:24;30.97;;;17.00;;
1410;SDS011;700;51.906;8.404;2022-12-15T00:54:45;44.57;;;17.73;;
1410;SDS011;700;51.906;8.404;2022-12-15T01:00:04;29.07;;;17.70;;
1410;SDS011;700;51.906;8.404;2022-12-15T01:05:24;33.80;;;18.30;;
1410;SDS011;700;51.906;8.404;2022-12-15T01:10:43;30.73;;;17.90;;
1410;SDS011;700;51.906;8.404;2022-12-15T01:16:09;24.23;;;15.37;;
1410;SDS011;700;51.906;8.404;2022-12-15T01:21:30;27.00;;;17.37;;
1410;SDS011;700;51.906;8.404;2022-12-15T01:26:33;29.67;;;17.13;;
1410;SDS011;700;51.906;8.404;2022-12-15T01:31:37;29.83;;;16.97;;
1410;SDS011;700;51.906;8.404;2022-12-15T01:36:40;33.13;;;17.70;;
1410;SDS011;700;51.906;8.404;2022-12-15T01:41:41;35.67;;;17.77;;
1410;SDS011;700;51.906;8.404;2022-12-15T01:46:42;28.63;;;16.23;;
1410;SDS011;700;51.906;8.404;2022-12-15T01:51:44;27.13;;;15.93;;
1410;SDS011;700;51.906;8.404;2022-12-15T01:56:48;28.30;;;17.80;;
1410;SDS011;700;51.906;8.404;2022-12-15T02:01:55;28.90;;;15.97;;
1410;SDS011;700;51.906;8.404;2022-12-15T02:06:58;29.57;;;18.07;;
1410;SDS011;700;51.906;8.404;2022-12-15T02:27:52;27.90;;;15.40;;
1410;SDS011;700;51.906;8.404;2022-12-15T02:38:10;26.37;;;16.23;;
1410;SDS011;700;51.906;8.404;2022-12-15T02:43:11;23.37;;;16.57;;
1410;SDS011;700;51.906;8.404;2022-12-15T02:54:10;26.03;;;15.83;;
1410;SDS011;700;51.906;8.404;2022-12-15T02:59:31;21.40;;;13.10;;
1410;SDS011;700;51.906;8.404;2022-12-15T03:04:37;23.10;;;15.53;;
1410;SDS011;700;51.906;8.404;2022-12-15T03:09:38;24.27;;;15.73;;
1410;SDS011;700;51.906;8.404;2022-12-15T03:14:41;25.30;;;16.30;;
1410;SDS011;700;51.906;8.404;2022-12-15T03:19:44;26.93;;;14.67;;
1410;SDS011;700;51.906;8.404;2022-12-15T03:24:44;24.20;;;14.80;;
1410;SDS011;700;51.906;8.404;2022-12-15T03:29:45;25.70;;;15.00;;
1410;SDS011;700;51.906;8.404;2022-12-15T03:34:46;22.20;;;13.97;;
1410;SDS011;700;51.906;8.404;2022-12-15T03:39:49;22.77;;;15.10;;
1410;SDS011;700;51.906;8.404;2022-12-15T03:44:50;32.07;;;17.03;;
1410;SDS011;700;51.906;8.404;2022-12-15T03:49:50;26.10;;;16.40;;
1410;SDS011;700;51.906;8.404;2022-12-15T03:54:53;27.50;;;13.77;;
1410;SDS011;700;51.906;8.404;2022-12-15T03:59:54;20.33;;;13.80;;
1410;SDS011;700;51.906;8.404;2022-12-15T04:04:54;25.00;;;15.13;;
1410;SDS011;700;51.906;8.404;2022-12-15T04:09:57;23.07;;;14.23;;
1410;SDS011;700;51.906;8.404;2022-12-15T04:15:00;26.83;;;14.20;;
1410;SDS011;700;51.906;8.404;2022-12-15T04:20:01;23.53;;;13.63;;
1410;SDS011;700;51.906;8.404;2022-12-15T04:25:15;33.63;;;14.17;;
1410;SDS011;700;51.906;8.404;2022-12-15T04:30:36;24.43;;;14.93;;
1410;SDS011;700;51.906;8.404;2022-12-15T04:35:56;24.60;;;13.80;;
1410;SDS011;700;51.906;8.404;2022-12-15T04:41:15;31.93;;;14.30;;
1410;SDS011;700;51.906;8.404;2022-12-15T04:46:38;20.40;;;13.33;;
1410;SDS011;700;51.906;8.404;2022-12-15T04:51:57;25.00;;;14.77;;
1410;SDS011;700;51.906;8.404;2022-12-15T04:57:16;21.37;;;12.97;;
1410;SDS011;700;51.906;8.404;2022-12-15T05:02:36;22.67;;;13.70;;
1410;SDS011;700;51.906;8.404;2022-12-15T05:07:58;22.33;;;13.87;;
1410;SDS011;700;51.906;8.404;2022-12-15T05:13:19;23.57;;;14.17;;
1410;SDS011;700;51.906;8.404;2022-12-15T05:18:38;20.87;;;13.07;;
1410;SDS011;700;51.906;8.404;2022-12-15T05:23:57;22.23;;;13.80;;
1410;SDS011;700;51.906;8.404;2022-12-15T05:29:17;23.77;;;13.53;;
1410;SDS011;700;51.906;8.404;2022-12-15T05:34:36;25.33;;;13.60;;
1410;SDS011;700;51.906;8.404;2022-12-15T05:39:37;25.90;;;14.00;;
1410;SDS011;700;51.906;8.404;2022-12-15T05:44:37;29.10;;;17.30;;
1410;SDS011;700;51.906;8.404;2022-12-15T05:49:38;23.57;;;15.57;;
1410;SDS011;700;51.906;8.404;2022-12-15T05:54:39;23.13;;;14.80;;
1410;SDS011;700;51.906;8.404;2022-12-15T05:59:41;23.00;;;13.93;;
1410;SDS011;700;51.906;8.404;2022-12-15T06:04:42;21.23;;;14.93;;
1410;SDS011;700;51.906;8.404;2022-12-15T06:09:43;23.67;;;14.50;;
1410;SDS011;700;51.906;8.404;2022-12-15T06:14:44;25.20;;;15.27;;
1410;SDS011;700;51.906;8.404;2022-12-15T06:19:44;23.20;;;14.13;;
1410;SDS011;700;51.906;8.404;2022-12-15T06:24:47;18.97;;;12.20;;
1410;SDS011;700;51.906;8.404;2022-12-15T06:29:48;28.30;;;15.50;;
1410;SDS011;700;51.906;8.404;2022-12-15T06:34:51;24.30;;;14.03;;
1410;SDS011;700;51.906;8.404;2022-12-15T06:39:52;23.53;;;14.27;;
1410;SDS011;700;51.906;8.404;2022-12-15T06:44:52;23.20;;;15.23;;
1410;SDS011;700;51.906;8.404;2022-12-15T06:49:53;29.97;;;17.13;;
1410;SDS011;700;51.906;8.404;2022-12-15T06:54:54;24.30;;;15.80;;
1410;SDS011;700;51.906;8.404;2022-12-15T07:00:00;23.77;;;15.70;;
1410;SDS011;700;51.906;8.404;2022-12-15T07:05:02;25.83;;;14.93;;
1410;SDS011;700;51.906;8.404;2022-12-15T07:10:08;25.03;;;14.60;;
1410;SDS011;700;51.906;8.404;2022-12-15T07:15:12;27.60;;;17.13;;
1410;SDS011;700;51.906;8.404;2022-12-15T07:20:13;28.50;;;14.97;;
1410;SDS011;700;51.906;8.404;2022-12-15T07:25:17;30.30;;;17.53;;
1410;SDS011;700;51.906;8.404;2022-12-15T07:30:20;35.23;;;20.67;;
1410;SDS011;700;51.906;8.404;2022-12-15T07:35:20;36.57;;;19.13;;
1410;SDS011;700;51.906;8.404;2022-12-15T07:40:23;30.47;;;18.13;;
1410;SDS011;700;51.906;8.404;2022-12-15T07:45:26;27.07;;;16.80;;
1410;SDS011;700;51.906;8.404;2022-12-15T07:50:27;31.20;;;18.03;;
1410;SDS011;700;51.906;8.404;2022-12-15T07:55:30;24.60;;;15.23;;
1410;SDS011;700;51.906;8.404;2022-12-15T08:00:31;29.33;;;16.83;;
1410;SDS011;700;51.906;8.404;2022-12-15T08:05:32;25.20;;;16.40;;
1410;SDS011;700;51.906;8.404;2022-12-15T08:10:35;23.20;;;16.13;;
1410;SDS011;700;51.906;8.404;2022-12-15T08:15:40;29.87;;;18.00;;
1410;SDS011;700;51.906;8.404;2022-12-15T08:20:41;23.93;;;16.03;;
1410;SDS011;700;51.906;8.404;2022-12-15T08:25:44;22.90;;;14.73;;
1410;SDS011;700;51.906;8.404;2022-12-15T08:30:44;25.93;;;16.13;;
1410;SDS011;700;51.906;8.404;2022-12-15T08:35:45;25.50;;;17.10;;
1410;SDS011;700;51.906;8.404;2022-12-15T08:40:46;22.50;;;15.43;;
1410;SDS011;700;51.906;8.404;2022-12-15T08:45:47;27.13;;;17.17;;
1410;SDS011;700;51.906;8.404;2022-12-15T08:50:47;24.90;;;16.30;;
1410;SDS011;700;51.906;8.404;2022-12-15T08:55:48;25.17;;;15.73;;
1410;SDS011;700;51.906;8.404;2022-12-15T09:00:53;24.67;;;16.70;;
1410;SDS011;700;51.906;8.404;2022-12-15T09:06:06;20.17;;;15.10;;
1410;SDS011;700;51.906;8.404;2022-12-15T09:11:11;26.03;;;16.87;;
1410;SDS011;700;51.906;8.404;2022-12-15T09:16:13;22.97;;;15.90;;
1410;SDS011;700;51.906;8.404;2022-12-15T09:21:16;23.97;;;16.07;;
1410;SDS011;700;51.906;8.404;2022-12-15T09:26:21;25.30;;;17.70;;
1410;SDS011;700;51.906;8.404;2022-12-15T09:31:24;24.17;;;16.37;;
1410;SDS011;700;51.906;8.404;2022-12-15T09:36:31;19.80;;;15.10;;
1410;SDS011;700;51.906;8.404;2022-12-15T09:41:34;21.40;;;15.30;;
1410;SDS011;700;51.906;8.404;2022-12-15T09:52:07;19.70;;;13.33;;
1410;SDS011;700;51.906;8.404;2022-12-15T09:57:34;21.67;;;14.90;;
1410;SDS011;700;51.906;8.404;2022-12-15T10:07:54;23.13;;;16.33;;
1410;SDS011;700;51.906;8.404;2022-12-15T10:13:03;22.50;;;14.10;;
1410;SDS011;700;51.906;8.404;2022-12-15T10:18:18;23.53;;;14.40;;
1410;SDS011;700;51.906;8.404;2022-12-15T10:23:25;22.37;;;14.47;;
1410;SDS011;700;51.906;8.404;2022-12-15T10:34:09;17.30;;;12.03;;
1410;SDS011;700;51.906;8.404;2022-12-15T10:39:21;20.30;;;12.50;;
1410;SDS011;700;51.906;8.404;2022-12-15T10:44:25;15.53;;;12.10;;
1410;SDS011;700;51.906;8.404;2022-12-15T10:49:35;17.50;;;12.20;;
1410;SDS011;700;51.906;8.404;2022-12-15T10:54:35;13.73;;;11.33;;
1410;SDS011;700;51.906;8.404;2022-12-15T10:59:44;14.93;;;11.70;;
1410;SDS011;700;51.906;8.404;2022-12-15T11:10:17;16.43;;;12.57;;
1410;SDS011;700;51.906;8.404;2022-12-15T11:20:27;15.57;;;12.43;;
1410;SDS011;700;51.906;8.404;2022-12-15T11:31:04;15.80;;;11.33;;
1410;SDS011;700;51.906;8.404;2022-12-15T11:48:08;19.97;;;12.07;;
1410;SDS011;700;51.906;8.404;2022-12-15T11:58:18;19.20;;;13.40;;
1410;SDS011;700;51.906;8.404;2022-12-15T12:03:47;16.90;;;12.00;;
1410;SDS011;700;51.906;8.404;2022-12-15T12:14:16;16.70;;;12.67;;
1410;SDS011;700;51.906;8.404;2022-12-15T12:19:28;19.50;;;12.57;;
1410;SDS011;700;51.906;8.404;2022-12-15T12:25:20;18.30;;;13.20;;
1410;SDS011;700;51.906;8.404;2022-12-15T12:30:07;15.30;;;12.17;;
1410;SDS011;700;51.906;8.404;2022-12-15T12:51:48;17.93;;;13.93;;
1410;SDS011;700;51.906;8.404;2022-12-15T12:56:51;16.70;;;12.43;;
1410;SDS011;700;51.906;8.404;2022-12-15T13:01:52;16.53;;;12.90;;
1410;SDS011;700;51.906;8.404;2022-12-15T13:07:04;17.43;;;13.27;;
1410;SDS011;700;51.906;8.404;2022-12-15T13:17:48;15.63;;;11.83;;
1410;SDS011;700;51.906;8.404;2022-12-15T13:22:55;17.13;;;11.10;;
1410;SDS011;700;51.906;8.404;2022-12-15T13:28:40;15.37;;;12.40;;
1410;SDS011;700;51.906;8.404;2022-12-15T13:38:51;17.30;;;12.53;;
1410;SDS011;700;51.906;8.404;2022-12-15T13:43:55;23.90;;;13.10;;
1410;SDS011;700;51.906;8.404;2022-12-15T13:49:03;17.00;;;12.60;;
1410;SDS011;700;51.906;8.404;2022-12-15T13:54:18;24.23;;;13.77;;
1410;SDS011;700;51.906;8.404;2022-12-15T13:59:30;16.03;;;11.70;;
1410;SDS011;700;51.906;8.404;2022-12-15T14:04:43;17.37;;;12.07;;
1410;SDS011;700;51.906;8.404;2022-12-15T14:09:48;19.20;;;12.77;;
1410;SDS011;700;51.906;8.404;2022-12-15T14:14:49;19.93;;;13.03;;
1410;SDS011;700;51.906;8.404;2022-12-15T14:19:52;15.20;;;11.97;;
1410;SDS011;700;51.906;8.404;2022-12-15T14:25:11;20.00;;;13.37;;
1410;SDS011;700;51.906;8.404;2022-12-15T14:30:25;23.63;;;13.20;;
1410;SDS011;700;51.906;8.404;2022-12-15T14:35:34;19.00;;;13.43;;
1410;SDS011;700;51.906;8.404;2022-12-15T14:40:41;20.13;;;12.83;;
1410;SDS011;700;51.906;8.404;2022-12-15T14:45:46;19.57;;;13.23;;
1410;SDS011;700;51.906;8.404;2022-12-15T14:50:53;18.33;;;14.00;;
1410;SDS011;700;51.906;8.404;2022-12-15T15:01:37;19.00;;;11.80;;
1410;SDS011;700;51.906;8.404;2022-12-15T15:06:39;26.47;;;17.43;;
1410;SDS011;700;51.906;8.404;2022-12-15T15:11:40;17.87;;;12.90;;
1410;SDS011;700;51.906;8.404;2022-12-15T15:16:42;18.83;;;13.90;;
1410;SDS011;700;51.906;8.404;2022-12-15T15:21:44;26.50;;;14.73;;
1410;SDS011;700;51.906;8.404;2022-12-15T15:26:45;21.00;;;13.63;;
1410;SDS011;700;51.906;8.404;2022-12-15T15:31:46;20.47;;;14.10;;
1410;SDS011;700;51.906;8.404;2022-12-15T15:36:52;25.67;;;16.53;;
1410;SDS011;700;51.906;8.404;2022-12-15T15:41:53;24.27;;;15.90;;
1410;SDS011;700;51.906;8.404;2022-12-15T15:46:56;30.00;;;20.63;;
1410;SDS011;700;51.906;8.404;2022-12-15T15:51:57;31.37;;;20.83;;
1410;SDS011;700;51.906;8.404;2022-12-15T15:56:58;29.63;;;18.50;;
1410;SDS011;700;51.906;8.404;2022-12-15T16:01:58;29.47;;;19.50;;
1410;SDS011;700;51.906;8.404;2022-12-15T16:06:59;32.00;;;20.93;;
1410;SDS011;700;51.906;8.404;2022-12-15T16:12:00;34.10;;;21.10;;
1410;SDS011;700;51.906;8.404;2022-12-15T16:17:00;34.57;;;21.13;;
1410;SDS011;700;51.906;8.404;2022-12-15T16:22:01;29.23;;;19.57;;
1410;SDS011;700;51.906;8.404;2022-12-15T16:27:04;34.93;;;20.90;;
1410;SDS011;700;51.906;8.404;2022-12-15T16:32:09;33.60;;;21.60;;
1410;SDS011;700;51.906;8.404;2022-12-15T16:37:19;40.10;;;25.20;;
1410;SDS011;700;51.906;8.404;2022-12-15T16:42:29;35.20;;;25.20;;
1410;SDS011;700;51.906;8.404;2022-12-15T16:47:30;45.67;;;28.00;;
1410;SDS011;700;51.906;8.404;2022-12-15T16:52:33;35.10;;;23.10;;
1410;SDS011;700;51.906;8.404;2022-12-15T16:57:34;33.07;;;22.40;;
1410;SDS011;700;51.906;8.404;2022-12-15T17:02:34;39.43;;;26.67;;
1410;SDS011;700;51.906;8.404;2022-12-15T17:07:36;49.63;;;25.87;;
1410;SDS011;700;51.906;8.404;2022-12-15T17:12:37;34.30;;;22.23;;
1410;SDS011;700;51.906;8.404;2022-12-15T17:17:41;32.57;;;22.03;;
1410;SDS011;700;51.906;8.404;2022-12-15T17:22:43;36.63;;;24.00;;
1410;SDS011;700;51.906;8.404;2022-12-15T17:27:47;36.07;;;22.60;;
1410;SDS011;700;51.906;8.404;2022-12-15T17:32:50;36.80;;;24.90;;
1410;SDS011;700;51.906;8.404;2022-12-15T17:37:50;33.83;;;21.43;;
1410;SDS011;700;51.906;8.404;2022-12-15T17:42:52;34.03;;;23.00;;
1410;SDS011;700;51.906;8.404;2022-12-15T17:47:52;35.20;;;22.30;;
1410;SDS011;700;51.906;8.404;2022-12-15T17:52:53;42.20;;;27.13;;
1410;SDS011;700;51.906;8.404;2022-12-15T17:57:54;36.10;;;25.60;;
1410;SDS011;700;51.906;8.404;2022-12-15T18:02:55;44.03;;;29.70;;
1410;SDS011;700;51.906;8.404;2022-12-15T18:08:01;60.33;;;36.53;;
1410;SDS011;700;51.906;8.404;2022-12-15T18:18:18;53.43;;;33.37;;
1410;SDS011;700;51.906;8.404;2022-12-15T18:23:23;54.90;;;34.03;;
1410;SDS011;700;51.906;8.404;2022-12-15T18:28:25;52.43;;;31.83;;
1410;SDS011;700;51.906;8.404;2022-12-15T18:33:30;43.90;;;28.83;;
1410;SDS011;700;51.906;8.404;2022-12-15T18:38:30;51.90;;;30.50;;
1410;SDS011;700;51.906;8.404;2022-12-15T18:43:36;50.70;;;32.40;;
1410;SDS011;700;51.906;8.404;2022-12-15T18:48:39;49.73;;;32.40;;
1410;SDS011;700;51.906;8.404;2022-12-15T18:53:41;42.93;;;29.00;;
1410;SDS011;700;51.906;8.404;2022-12-15T18:58:42;58.53;;;33.57;;
1410;SDS011;700;51.906;8.404;2022-12-15T19:03:43;40.47;;;27.90;;
1410;SDS011;700;51.906;8.404;2022-12-15T19:08:43;41.57;;;26.97;;
1410;SDS011;700;51.906;8.404;2022-12-15T19:13:47;45.70;;;28.40;;
1410;SDS011;700;51.906;8.404;2022-12-15T19:18:47;38.20;;;25.47;;
1410;SDS011;700;51.906;8.404;2022-12-15T19:29:45;38.37;;;26.27;;
1410;SDS011;700;51.906;8.404;2022-12-15T19:34:46;37.07;;;24.87;;
1410;SDS011;700;51.906;8.404;2022-12-15T19:39:49;38.40;;;24.47;;
1410;SDS011;700;51.906;8.404;2022-12-15T19:44:50;39.20;;;24.30;;
1410;SDS011;700;51.906;8.404;2022-12-15T19:49:51;34.90;;;23.30;;
1410;SDS011;700;51.906;8.404;2022-12-15T19:54:54;36.93;;;23.00;;
1410;SDS011;700;51.906;8.404;2022-12-15T19:59:54;34.33;;;22.60;;
1410;SDS011;700;51.906;8.404;2022-12-15T20:04:57;33.30;;;22.00;;
1410;SDS011;700;51.906;8.404;2022-12-15T20:09:58;35.40;;;20.40;;
1410;SDS011;700;51.906;8.404;2022-12-15T20:14:59;38.30;;;22.97;;
1410;SDS011;700;51.906;8.404;2022-12-15T20:20:02;38.23;;;23.03;;
1410;SDS011;700;51.906;8.404;2022-12-15T20:25:04;31.17;;;22.40;;
1410;SDS011;700;51.906;8.404;2022-12-15T20:30:05;39.27;;;23.80;;
1410;SDS011;700;51.906;8.404;2022-12-15T20:35:17;31.90;;;22.03;;
1410;SDS011;700;51.906;8.404;2022-12-15T20:40:23;38.10;;;22.53;;
1410;SDS011;700;51.906;8.404;2022-12-15T20:45:25;35.73;;;22.07;;
1410;SDS011;700;51.906;8.404;2022-12-15T20:50:34;42.60;;;24.57;;
1410;SDS011;700;51.906;8.404;2022-12-15T20:55:43;51.90;;;24.03;;
1410;SDS011;700;51.906;8.404;2022-12-15T21:00:49;37.80;;;23.10;;
1410;SDS011;700;51.906;8.404;2022-12-15T21:05:54;42.47;;;24.33;;
1410;SDS011;700;51.906;8.404;2022-12-15T21:11:00;47.60;;;26.30;;
1410;SDS011;700;51.906;8.404;2022-12-15T21:16:16;50.07;;;27.90;;
1410;SDS011;700;51.906;8.404;2022-12-15T21:21:31;45.77;;;24.33;;
1410;SDS011;700;51.906;8.404;2022-12-15T21:26:34;46.33;;;25.47;;
1410;SDS011;700;51.906;8.404;2022-12-15T21:31:34;43.67;;;26.60;;
1410;SDS011;700;51.906;8.404;2022-12-15T21:36:35;42.47;;;24.77;;
1410;SDS011;700;51.906;8.404;2022-12-15T21:41:38;45.20;;;25.73;;
1410;SDS011;700;51.906;8.404;2022-12-15T21:46:41;40.83;;;24.37;;
1410;SDS011;700;51.906;8.404;2022-12-15T21:51:49;39.17;;;25.40;;
1410;SDS011;700;51.906;8.404;2022-12-15T21:56:51;41.50;;;26.93;;
1410;SDS011;700;51.906;8.404;2022-12-15T22:01:54;41.73;;;23.93;;
1410;SDS011;700;51.906;8.404;2022-12-15T22:06:55;40.13;;;24.77;;
1410;SDS011;700;51.906;8.404;2022-12-15T22:11:56;35.70;;;23.43;;
1410;SDS011;700;51.906;8.404;2022-12-15T22:16:57;44.90;;;24.23;;
1410;SDS011;700;51.906;8.404;2022-12-15T22:22:00;35.83;;;22.23;;
1410;SDS011;700;51.906;8.404;2022-12-15T22:27:00;35.97;;;21.90;;
1410;SDS011;700;51.906;8.404;2022-12-15T22:32:01;40.67;;;23.27;;
1410;SDS011;700;51.906;8.404;2022-12-15T22:37:13;33.53;;;21.97;;
1410;SDS011;700;51.906;8.404;2022-12-15T22:42:16;40.07;;;22.10;;
1410;SDS011;700;51.906;8.404;2022-12-15T22:47:19;35.33;;;21.70;;
1410;SDS011;700;51.906;8.404;2022-12-15T22:52:22;39.50;;;24.10;;
1410;SDS011;700;51.906;8.404;2022-12-15T22:57:26;34.20;;;22.37;;
1410;SDS011;700;51.906;8.404;2022-12-15T23:02:30;31.93;;;21.40;;
1410;SDS011;700;51.906;8.404;2022-12-15T23:07:37;33.30;;;21.37;;
1410;SDS011;700;51.906;8.404;2022-12-15T23:12:38;41.10;;;22.07;;
1410;SDS011;700;51.906;8.404;2022-12-15T23:17:39;35.93;;;21.13;;
1410;SDS011;700;51.906;8.404;2022-12-15T23:22:39;31.40;;;21.10;;
1410;SDS011;700;51.906;8.404;2022-12-15T23:27:45;38.90;;;21.90;;
1410;SDS011;700;51.906;8.404;2022-12-15T23:32:45;37.27;;;23.17;;
1410;SDS011;700;51.906;8.404;2022-12-15T23:37:46;36.60;;;22.40;;
1410;SDS011;700;51.906;8.404;2022-12-15T23:42:50;29.70;;;21.33;;
1410;SDS011;700;51.906;8.404;2022-12-15T23:47:53;32.30;;;21.70;;
1410;SDS011;700;51.906;8.404;2022-12-15T23:52:53;32.30;;;21.60;;
1410;SDS011;700;51.906;8.404;2022-12-15T23:57:54;36.87;;;20.47;;
